sensor_id;sensor_type;location;lat;lon;timestamp;P1;durP1;ratioP1;P2;durP2;ratioP2
72856;SDS011;62742;52.136;4.500;2023-09-07T00:01:56;14.98;;;12.27;;
72856;SDS011;62742;52.136;4.500;2023-09-07T00:04:23;18.42;;;14.35;;
72856;SDS011;62742;52.136;4.500;2023-09-07T00:06:49;17.85;;;13.35;;
72856;SDS011;62742;52.136;4.500;2023-09-07T00:09:16;16.17;;;12.32;;
72856;SDS011;62742;52.136;4.500;2023-09-07T00:11:44;16.45;;;12.02;;
72856;SDS011;62742;52.136;4.500;2023-09-07T00:14:11;18.10;;;12.50;;
72856;SDS011;62742;52.136;4.500;2023-09-07T00:16:37;16.27;;;11.25;;
72856;SDS011;62742;52.136;4.500;2023-09-07T00:19:04;17.48;;;11.45;;
72856;SDS011;62742;52.136;4.500;2023-09-07T00:21:31;15.68;;;10.68;;
72856;SDS011;62742;52.136;4.500;2023-09-07T00:23:58;16.15;;;12.02;;
72856;SDS011;62742;52.136;4.500;2023-09-07T00:26:24;15.70;;;11.35;;
72856;SDS011;62742;52.136;4.500;2023-09-07T00:28:50;14.82;;;10.93;;
72856;SDS011;62742;52.136;4.500;2023-09-07T00:31:17;14.90;;;10.38;;
72856;SDS011;62742;52.136;4.500;2023-09-07T00:33:43;14.18;;;9.90;;
72856;SDS011;62742;52.136;4.500;2023-09-07T00:36:10;16.80;;;10.23;;
72856;SDS011;62742;52.136;4.500;2023-09-07T00:38:39;15.90;;;10.10;;
72856;SDS011;62742;52.136;4.500;2023-09-07T00:41:06;13.35;;;9.70;;
72856;SDS011;62742;52.136;4.500;2023-09-07T00:43:33;14.32;;;10.05;;
72856;SDS011;62742;52.136;4.500;2023-09-07T00:45:59;12.85;;;9.80;;
72856;SDS011;62742;52.136;4.500;2023-09-07T00:48:26;15.32;;;10.75;;
72856;SDS011;62742;52.136;4.500;2023-09-07T00:50:52;13.77;;;10.38;;
72856;SDS011;62742;52.136;4.500;2023-09-07T00:53:20;15.10;;;10.93;;
72856;SDS011;62742;52.136;4.500;2023-09-07T00:55:46;16.20;;;12.05;;
72856;SDS011;62742;52.136;4.500;2023-09-07T00:58:13;14.60;;;10.20;;
72856;SDS011;62742;52.136;4.500;2023-09-07T01:00:40;15.32;;;10.80;;
72856;SDS011;62742;52.136;4.500;2023-09-07T01:03:07;14.48;;;11.00;;
72856;SDS011;62742;52.136;4.500;2023-09-07T01:05:43;15.57;;;11.18;;
72856;SDS011;62742;52.136;4.500;2023-09-07T01:08:24;17.00;;;11.90;;
72856;SDS011;62742;52.136;4.500;2023-09-07T01:10:57;15.27;;;10.80;;
72856;SDS011;62742;52.136;4.500;2023-09-07T01:13:24;16.50;;;11.07;;
72856;SDS011;62742;52.136;4.500;2023-09-07T01:15:50;16.15;;;10.77;;
72856;SDS011;62742;52.136;4.500;2023-09-07T01:18:18;15.88;;;10.05;;
72856;SDS011;62742;52.136;4.500;2023-09-07T01:20:46;16.98;;;12.02;;
72856;SDS011;62742;52.136;4.500;2023-09-07T01:23:15;16.35;;;12.20;;
72856;SDS011;62742;52.136;4.500;2023-09-07T01:25:41;18.50;;;11.25;;
72856;SDS011;62742;52.136;4.500;2023-09-07T01:28:09;16.85;;;11.93;;
72856;SDS011;62742;52.136;4.500;2023-09-07T01:30:36;19.38;;;12.52;;
72856;SDS011;62742;52.136;4.500;2023-09-07T01:33:04;16.65;;;11.35;;
72856;SDS011;62742;52.136;4.500;2023-09-07T01:35:31;16.33;;;10.35;;
72856;SDS011;62742;52.136;4.500;2023-09-07T01:38:00;17.38;;;11.68;;
72856;SDS011;62742;52.136;4.500;2023-09-07T01:40:27;16.52;;;12.55;;
72856;SDS011;62742;52.136;4.500;2023-09-07T01:42:54;14.02;;;11.13;;
72856;SDS011;62742;52.136;4.500;2023-09-07T01:45:21;18.80;;;11.75;;
72856;SDS011;62742;52.136;4.500;2023-09-07T01:47:49;15.77;;;11.15;;
72856;SDS011;62742;52.136;4.500;2023-09-07T01:50:17;14.57;;;11.00;;
72856;SDS011;62742;52.136;4.500;2023-09-07T01:52:47;15.60;;;11.70;;
72856;SDS011;62742;52.136;4.500;2023-09-07T01:55:15;15.40;;;12.13;;
72856;SDS011;62742;52.136;4.500;2023-09-07T01:57:42;17.15;;;11.70;;
72856;SDS011;62742;52.136;4.500;2023-09-07T02:00:10;15.00;;;11.18;;
72856;SDS011;62742;52.136;4.500;2023-09-07T02:02:38;17.90;;;12.35;;
72856;SDS011;62742;52.136;4.500;2023-09-07T02:05:05;22.10;;;15.38;;
72856;SDS011;62742;52.136;4.500;2023-09-07T02:07:31;20.80;;;14.68;;
72856;SDS011;62742;52.136;4.500;2023-09-07T02:09:58;18.33;;;13.30;;
72856;SDS011;62742;52.136;4.500;2023-09-07T02:12:25;18.00;;;12.38;;
72856;SDS011;62742;52.136;4.500;2023-09-07T02:14:51;17.58;;;12.05;;
72856;SDS011;62742;52.136;4.500;2023-09-07T02:17:18;19.85;;;12.20;;
72856;SDS011;62742;52.136;4.500;2023-09-07T02:19:44;18.45;;;13.40;;
72856;SDS011;62742;52.136;4.500;2023-09-07T02:22:11;17.25;;;12.05;;
72856;SDS011;62742;52.136;4.500;2023-09-07T02:24:37;17.65;;;11.93;;
72856;SDS011;62742;52.136;4.500;2023-09-07T02:27:04;15.23;;;11.27;;
72856;SDS011;62742;52.136;4.500;2023-09-07T02:29:30;16.77;;;11.20;;
72856;SDS011;62742;52.136;4.500;2023-09-07T02:31:57;20.75;;;12.55;;
72856;SDS011;62742;52.136;4.500;2023-09-07T02:34:24;15.65;;;10.98;;
72856;SDS011;62742;52.136;4.500;2023-09-07T02:36:50;16.73;;;11.65;;
72856;SDS011;62742;52.136;4.500;2023-09-07T02:39:17;16.35;;;11.40;;
72856;SDS011;62742;52.136;4.500;2023-09-07T02:41:44;20.45;;;13.13;;
72856;SDS011;62742;52.136;4.500;2023-09-07T02:44:11;16.52;;;11.32;;
72856;SDS011;62742;52.136;4.500;2023-09-07T02:46:37;22.77;;;12.98;;
72856;SDS011;62742;52.136;4.500;2023-09-07T02:49:04;22.52;;;14.60;;
72856;SDS011;62742;52.136;4.500;2023-09-07T02:51:30;19.73;;;14.10;;
72856;SDS011;62742;52.136;4.500;2023-09-07T02:53:57;16.27;;;11.85;;
72856;SDS011;62742;52.136;4.500;2023-09-07T02:56:23;19.13;;;13.63;;
72856;SDS011;62742;52.136;4.500;2023-09-07T02:58:50;22.63;;;16.95;;
72856;SDS011;62742;52.136;4.500;2023-09-07T03:01:17;19.35;;;13.82;;
72856;SDS011;62742;52.136;4.500;2023-09-07T03:03:46;21.15;;;13.85;;
72856;SDS011;62742;52.136;4.500;2023-09-07T03:06:13;18.35;;;12.70;;
72856;SDS011;62742;52.136;4.500;2023-09-07T03:08:42;16.83;;;11.25;;
72856;SDS011;62742;52.136;4.500;2023-09-07T03:11:09;17.88;;;13.40;;
72856;SDS011;62742;52.136;4.500;2023-09-07T03:13:36;18.65;;;12.02;;
72856;SDS011;62742;52.136;4.500;2023-09-07T03:16:03;17.98;;;12.27;;
72856;SDS011;62742;52.136;4.500;2023-09-07T03:18:30;15.35;;;11.52;;
72856;SDS011;62742;52.136;4.500;2023-09-07T03:20:58;18.95;;;13.40;;
72856;SDS011;62742;52.136;4.500;2023-09-07T03:23:27;19.35;;;12.85;;
72856;SDS011;62742;52.136;4.500;2023-09-07T03:25:58;18.38;;;13.20;;
72856;SDS011;62742;52.136;4.500;2023-09-07T03:28:26;14.75;;;11.13;;
72856;SDS011;62742;52.136;4.500;2023-09-07T03:30:56;15.63;;;11.77;;
72856;SDS011;62742;52.136;4.500;2023-09-07T03:33:22;20.45;;;14.15;;
72856;SDS011;62742;52.136;4.500;2023-09-07T03:35:49;18.85;;;12.20;;
72856;SDS011;62742;52.136;4.500;2023-09-07T03:38:17;16.75;;;12.18;;
72856;SDS011;62742;52.136;4.500;2023-09-07T03:40:44;17.17;;;13.05;;
72856;SDS011;62742;52.136;4.500;2023-09-07T03:43:10;18.40;;;12.75;;
72856;SDS011;62742;52.136;4.500;2023-09-07T03:45:37;20.92;;;14.68;;
72856;SDS011;62742;52.136;4.500;2023-09-07T03:48:04;26.48;;;18.10;;
72856;SDS011;62742;52.136;4.500;2023-09-07T03:50:31;22.00;;;15.85;;
72856;SDS011;62742;52.136;4.500;2023-09-07T03:52:57;17.10;;;13.32;;
72856;SDS011;62742;52.136;4.500;2023-09-07T03:55:25;20.17;;;13.40;;
72856;SDS011;62742;52.136;4.500;2023-09-07T03:57:51;19.77;;;14.93;;
72856;SDS011;62742;52.136;4.500;2023-09-07T04:00:18;19.95;;;14.20;;
72856;SDS011;62742;52.136;4.500;2023-09-07T04:02:45;18.85;;;13.13;;
72856;SDS011;62742;52.136;4.500;2023-09-07T04:05:12;22.17;;;16.08;;
72856;SDS011;62742;52.136;4.500;2023-09-07T04:07:38;20.58;;;16.38;;
72856;SDS011;62742;52.136;4.500;2023-09-07T04:10:05;17.20;;;13.27;;
72856;SDS011;62742;52.136;4.500;2023-09-07T04:12:32;22.45;;;14.80;;
72856;SDS011;62742;52.136;4.500;2023-09-07T04:15:00;21.63;;;15.63;;
72856;SDS011;62742;52.136;4.500;2023-09-07T04:17:28;21.65;;;15.93;;
72856;SDS011;62742;52.136;4.500;2023-09-07T04:19:55;18.77;;;15.05;;
72856;SDS011;62742;52.136;4.500;2023-09-07T04:22:22;22.95;;;16.98;;
72856;SDS011;62742;52.136;4.500;2023-09-07T04:24:48;21.77;;;15.82;;
72856;SDS011;62742;52.136;4.500;2023-09-07T04:27:15;20.83;;;15.57;;
72856;SDS011;62742;52.136;4.500;2023-09-07T04:29:42;27.33;;;18.98;;
72856;SDS011;62742;52.136;4.500;2023-09-07T04:32:08;29.67;;;20.70;;
72856;SDS011;62742;52.136;4.500;2023-09-07T04:34:34;27.02;;;17.88;;
72856;SDS011;62742;52.136;4.500;2023-09-07T04:37:01;22.95;;;16.20;;
72856;SDS011;62742;52.136;4.500;2023-09-07T04:39:28;26.08;;;18.20;;
72856;SDS011;62742;52.136;4.500;2023-09-07T04:41:55;25.35;;;18.33;;
72856;SDS011;62742;52.136;4.500;2023-09-07T04:44:22;23.63;;;16.27;;
72856;SDS011;62742;52.136;4.500;2023-09-07T04:46:48;24.65;;;14.48;;
72856;SDS011;62742;52.136;4.500;2023-09-07T04:49:18;19.52;;;13.80;;
72856;SDS011;62742;52.136;4.500;2023-09-07T04:51:45;19.63;;;14.07;;
72856;SDS011;62742;52.136;4.500;2023-09-07T04:54:12;21.50;;;16.55;;
72856;SDS011;62742;52.136;4.500;2023-09-07T04:56:39;22.98;;;16.52;;
72856;SDS011;62742;52.136;4.500;2023-09-07T04:59:05;27.15;;;18.73;;
72856;SDS011;62742;52.136;4.500;2023-09-07T05:01:31;23.15;;;16.60;;
72856;SDS011;62742;52.136;4.500;2023-09-07T05:03:58;24.08;;;18.60;;
72856;SDS011;62742;52.136;4.500;2023-09-07T05:06:24;23.50;;;17.77;;
72856;SDS011;62742;52.136;4.500;2023-09-07T05:08:52;24.95;;;19.02;;
72856;SDS011;62742;52.136;4.500;2023-09-07T05:11:18;20.02;;;14.82;;
72856;SDS011;62742;52.136;4.500;2023-09-07T05:13:45;25.15;;;18.58;;
72856;SDS011;62742;52.136;4.500;2023-09-07T05:16:11;26.33;;;18.02;;
72856;SDS011;62742;52.136;4.500;2023-09-07T05:18:38;20.13;;;14.52;;
72856;SDS011;62742;52.136;4.500;2023-09-07T05:21:15;28.27;;;17.77;;
72856;SDS011;62742;52.136;4.500;2023-09-07T05:23:42;23.83;;;17.90;;
72856;SDS011;62742;52.136;4.500;2023-09-07T05:26:09;41.40;;;27.08;;
72856;SDS011;62742;52.136;4.500;2023-09-07T05:28:35;29.45;;;20.02;;
72856;SDS011;62742;52.136;4.500;2023-09-07T05:31:02;25.67;;;18.20;;
72856;SDS011;62742;52.136;4.500;2023-09-07T05:33:29;23.85;;;17.73;;
72856;SDS011;62742;52.136;4.500;2023-09-07T05:35:56;20.08;;;14.82;;
72856;SDS011;62742;52.136;4.500;2023-09-07T05:38:22;25.73;;;18.40;;
72856;SDS011;62742;52.136;4.500;2023-09-07T05:40:50;27.10;;;19.83;;
72856;SDS011;62742;52.136;4.500;2023-09-07T05:43:20;21.52;;;15.18;;
72856;SDS011;62742;52.136;4.500;2023-09-07T05:45:46;19.65;;;14.27;;
72856;SDS011;62742;52.136;4.500;2023-09-07T05:48:13;32.05;;;22.75;;
72856;SDS011;62742;52.136;4.500;2023-09-07T05:50:43;30.25;;;21.65;;
72856;SDS011;62742;52.136;4.500;2023-09-07T05:53:10;37.50;;;24.33;;
72856;SDS011;62742;52.136;4.500;2023-09-07T05:55:37;23.63;;;18.35;;
72856;SDS011;62742;52.136;4.500;2023-09-07T05:58:07;30.02;;;21.65;;
72856;SDS011;62742;52.136;4.500;2023-09-07T06:00:34;29.35;;;21.88;;
72856;SDS011;62742;52.136;4.500;2023-09-07T06:03:02;25.33;;;17.80;;
72856;SDS011;62742;52.136;4.500;2023-09-07T06:05:29;41.03;;;25.58;;
72856;SDS011;62742;52.136;4.500;2023-09-07T06:07:55;35.67;;;25.50;;
72856;SDS011;62742;52.136;4.500;2023-09-07T06:10:22;30.60;;;22.08;;
72856;SDS011;62742;52.136;4.500;2023-09-07T06:12:49;35.97;;;24.33;;
72856;SDS011;62742;52.136;4.500;2023-09-07T06:15:16;34.13;;;20.90;;
72856;SDS011;62742;52.136;4.500;2023-09-07T06:17:42;23.67;;;18.17;;
72856;SDS011;62742;52.136;4.500;2023-09-07T06:20:09;28.02;;;17.77;;
72856;SDS011;62742;52.136;4.500;2023-09-07T06:22:36;28.25;;;20.73;;
72856;SDS011;62742;52.136;4.500;2023-09-07T06:25:02;23.27;;;17.70;;
72856;SDS011;62742;52.136;4.500;2023-09-07T06:27:29;33.42;;;24.08;;
72856;SDS011;62742;52.136;4.500;2023-09-07T06:29:55;28.38;;;19.75;;
72856;SDS011;62742;52.136;4.500;2023-09-07T06:32:22;33.55;;;23.50;;
72856;SDS011;62742;52.136;4.500;2023-09-07T06:34:49;30.42;;;19.80;;
72856;SDS011;62742;52.136;4.500;2023-09-07T06:37:16;23.10;;;18.17;;
72856;SDS011;62742;52.136;4.500;2023-09-07T06:39:43;24.80;;;18.45;;
72856;SDS011;62742;52.136;4.500;2023-09-07T06:42:10;21.23;;;15.27;;
72856;SDS011;62742;52.136;4.500;2023-09-07T06:44:36;19.58;;;14.73;;
72856;SDS011;62742;52.136;4.500;2023-09-07T06:47:03;14.65;;;11.35;;
72856;SDS011;62742;52.136;4.500;2023-09-07T06:49:29;16.48;;;11.82;;
72856;SDS011;62742;52.136;4.500;2023-09-07T06:51:56;16.60;;;12.27;;
72856;SDS011;62742;52.136;4.500;2023-09-07T06:54:23;17.60;;;12.05;;
72856;SDS011;62742;52.136;4.500;2023-09-07T06:56:49;16.25;;;10.98;;
72856;SDS011;62742;52.136;4.500;2023-09-07T06:59:17;17.33;;;10.85;;
72856;SDS011;62742;52.136;4.500;2023-09-07T07:01:43;13.73;;;10.43;;
72856;SDS011;62742;52.136;4.500;2023-09-07T07:04:10;14.90;;;9.98;;
72856;SDS011;62742;52.136;4.500;2023-09-07T07:06:36;15.05;;;9.90;;
72856;SDS011;62742;52.136;4.500;2023-09-07T07:09:03;14.98;;;9.80;;
72856;SDS011;62742;52.136;4.500;2023-09-07T07:11:31;12.68;;;9.75;;
72856;SDS011;62742;52.136;4.500;2023-09-07T07:13:57;15.55;;;10.63;;
72856;SDS011;62742;52.136;4.500;2023-09-07T07:16:24;14.35;;;10.10;;
72856;SDS011;62742;52.136;4.500;2023-09-07T07:18:50;13.85;;;9.63;;
72856;SDS011;62742;52.136;4.500;2023-09-07T07:21:17;13.55;;;9.75;;
72856;SDS011;62742;52.136;4.500;2023-09-07T07:23:43;13.90;;;10.32;;
72856;SDS011;62742;52.136;4.500;2023-09-07T07:26:10;13.63;;;9.48;;
72856;SDS011;62742;52.136;4.500;2023-09-07T07:28:37;13.93;;;9.48;;
72856;SDS011;62742;52.136;4.500;2023-09-07T07:31:07;13.75;;;9.85;;
72856;SDS011;62742;52.136;4.500;2023-09-07T07:33:37;14.07;;;9.38;;
72856;SDS011;62742;52.136;4.500;2023-09-07T07:36:04;14.13;;;9.95;;
72856;SDS011;62742;52.136;4.500;2023-09-07T07:38:31;12.77;;;9.57;;
72856;SDS011;62742;52.136;4.500;2023-09-07T07:40:57;13.88;;;9.90;;
72856;SDS011;62742;52.136;4.500;2023-09-07T07:43:24;12.70;;;9.82;;
72856;SDS011;62742;52.136;4.500;2023-09-07T07:45:51;13.85;;;10.15;;
72856;SDS011;62742;52.136;4.500;2023-09-07T07:48:19;14.02;;;10.00;;
72856;SDS011;62742;52.136;4.500;2023-09-07T07:50:46;13.88;;;9.50;;
72856;SDS011;62742;52.136;4.500;2023-09-07T07:53:12;12.75;;;9.57;;
72856;SDS011;62742;52.136;4.500;2023-09-07T07:55:40;13.93;;;9.77;;
72856;SDS011;62742;52.136;4.500;2023-09-07T07:58:08;14.20;;;9.85;;
72856;SDS011;62742;52.136;4.500;2023-09-07T08:00:36;12.73;;;9.32;;
72856;SDS011;62742;52.136;4.500;2023-09-07T08:03:04;13.48;;;9.57;;
72856;SDS011;62742;52.136;4.500;2023-09-07T08:05:33;14.38;;;9.45;;
72856;SDS011;62742;52.136;4.500;2023-09-07T08:08:00;13.93;;;9.25;;
72856;SDS011;62742;52.136;4.500;2023-09-07T08:10:33;13.80;;;8.85;;
72856;SDS011;62742;52.136;4.500;2023-09-07T08:13:02;15.02;;;9.32;;
72856;SDS011;62742;52.136;4.500;2023-09-07T08:15:31;12.90;;;8.93;;
72856;SDS011;62742;52.136;4.500;2023-09-07T08:17:59;13.98;;;9.65;;
72856;SDS011;62742;52.136;4.500;2023-09-07T08:20:26;12.57;;;9.27;;
72856;SDS011;62742;52.136;4.500;2023-09-07T08:22:53;13.18;;;9.55;;
72856;SDS011;62742;52.136;4.500;2023-09-07T08:25:20;14.80;;;9.15;;
72856;SDS011;62742;52.136;4.500;2023-09-07T08:27:47;14.07;;;8.70;;
72856;SDS011;62742;52.136;4.500;2023-09-07T08:30:15;14.45;;;9.23;;
72856;SDS011;62742;52.136;4.500;2023-09-07T08:32:43;11.98;;;8.48;;
72856;SDS011;62742;52.136;4.500;2023-09-07T08:35:11;13.18;;;9.10;;
72856;SDS011;62742;52.136;4.500;2023-09-07T08:37:39;14.88;;;9.13;;
72856;SDS011;62742;52.136;4.500;2023-09-07T08:40:07;12.05;;;7.97;;
72856;SDS011;62742;52.136;4.500;2023-09-07T08:42:35;12.52;;;7.63;;
72856;SDS011;62742;52.136;4.500;2023-09-07T08:45:03;11.60;;;7.80;;
72856;SDS011;62742;52.136;4.500;2023-09-07T08:47:33;11.98;;;7.63;;
72856;SDS011;62742;52.136;4.500;2023-09-07T08:50:02;11.93;;;7.40;;
72856;SDS011;62742;52.136;4.500;2023-09-07T08:52:34;10.30;;;6.93;;
72856;SDS011;62742;52.136;4.500;2023-09-07T08:55:02;13.10;;;7.30;;
72856;SDS011;62742;52.136;4.500;2023-09-07T08:57:32;10.95;;;6.03;;
72856;SDS011;62742;52.136;4.500;2023-09-07T08:59:59;10.15;;;7.00;;
72856;SDS011;62742;52.136;4.500;2023-09-07T09:02:25;9.95;;;6.88;;
72856;SDS011;62742;52.136;4.500;2023-09-07T09:04:52;11.18;;;6.82;;
72856;SDS011;62742;52.136;4.500;2023-09-07T09:07:19;13.65;;;7.22;;
72856;SDS011;62742;52.136;4.500;2023-09-07T09:09:47;10.70;;;6.35;;
72856;SDS011;62742;52.136;4.500;2023-09-07T09:12:13;10.88;;;7.13;;
72856;SDS011;62742;52.136;4.500;2023-09-07T09:14:43;14.65;;;6.63;;
72856;SDS011;62742;52.136;4.500;2023-09-07T09:17:12;12.77;;;6.18;;
72856;SDS011;62742;52.136;4.500;2023-09-07T09:19:40;9.80;;;5.68;;
72856;SDS011;62742;52.136;4.500;2023-09-07T09:22:07;10.52;;;6.00;;
72856;SDS011;62742;52.136;4.500;2023-09-07T09:24:34;9.50;;;6.15;;
72856;SDS011;62742;52.136;4.500;2023-09-07T09:27:02;10.45;;;5.55;;
72856;SDS011;62742;52.136;4.500;2023-09-07T09:29:33;9.57;;;6.13;;
72856;SDS011;62742;52.136;4.500;2023-09-07T09:32:02;9.18;;;5.70;;
72856;SDS011;62742;52.136;4.500;2023-09-07T09:34:32;11.85;;;5.70;;
72856;SDS011;62742;52.136;4.500;2023-09-07T09:37:01;8.98;;;4.97;;
72856;SDS011;62742;52.136;4.500;2023-09-07T09:39:32;10.25;;;4.88;;
72856;SDS011;62742;52.136;4.500;2023-09-07T09:41:59;12.13;;;6.07;;
72856;SDS011;62742;52.136;4.500;2023-09-07T09:44:26;9.90;;;5.18;;
72856;SDS011;62742;52.136;4.500;2023-09-07T09:46:55;10.25;;;5.55;;
72856;SDS011;62742;52.136;4.500;2023-09-07T09:49:23;8.48;;;5.18;;
72856;SDS011;62742;52.136;4.500;2023-09-07T09:51:51;9.43;;;5.25;;
72856;SDS011;62742;52.136;4.500;2023-09-07T09:54:18;7.68;;;5.47;;
72856;SDS011;62742;52.136;4.500;2023-09-07T09:56:45;11.25;;;5.13;;
72856;SDS011;62742;52.136;4.500;2023-09-07T09:59:12;10.43;;;6.25;;
72856;SDS011;62742;52.136;4.500;2023-09-07T10:01:41;8.85;;;5.30;;
72856;SDS011;62742;52.136;4.500;2023-09-07T10:04:13;11.45;;;4.88;;
72856;SDS011;62742;52.136;4.500;2023-09-07T10:06:50;9.57;;;5.47;;
72856;SDS011;62742;52.136;4.500;2023-09-07T10:09:32;14.23;;;5.30;;
72856;SDS011;62742;52.136;4.500;2023-09-07T10:12:01;7.90;;;5.05;;
72856;SDS011;62742;52.136;4.500;2023-09-07T10:14:39;9.20;;;4.88;;
72856;SDS011;62742;52.136;4.500;2023-09-07T10:17:07;11.60;;;6.82;;
72856;SDS011;62742;52.136;4.500;2023-09-07T10:19:35;12.18;;;4.80;;
72856;SDS011;62742;52.136;4.500;2023-09-07T10:22:04;9.43;;;5.05;;
72856;SDS011;62742;52.136;4.500;2023-09-07T10:24:31;9.60;;;5.00;;
72856;SDS011;62742;52.136;4.500;2023-09-07T10:27:03;10.15;;;4.82;;
72856;SDS011;62742;52.136;4.500;2023-09-07T10:29:42;10.13;;;4.68;;
72856;SDS011;62742;52.136;4.500;2023-09-07T10:32:12;8.60;;;4.65;;
72856;SDS011;62742;52.136;4.500;2023-09-07T10:34:42;11.15;;;4.60;;
72856;SDS011;62742;52.136;4.500;2023-09-07T10:37:12;8.38;;;4.57;;
72856;SDS011;62742;52.136;4.500;2023-09-07T10:39:41;8.30;;;4.40;;
72856;SDS011;62742;52.136;4.500;2023-09-07T10:42:22;9.82;;;4.82;;
72856;SDS011;62742;52.136;4.500;2023-09-07T10:44:50;8.68;;;4.53;;
72856;SDS011;62742;52.136;4.500;2023-09-07T10:47:17;13.73;;;4.68;;
72856;SDS011;62742;52.136;4.500;2023-09-07T10:49:43;7.88;;;4.28;;
72856;SDS011;62742;52.136;4.500;2023-09-07T10:52:10;8.35;;;4.90;;
72856;SDS011;62742;52.136;4.500;2023-09-07T10:54:37;11.55;;;5.55;;
72856;SDS011;62742;52.136;4.500;2023-09-07T10:57:10;9.55;;;4.72;;
72856;SDS011;62742;52.136;4.500;2023-09-07T10:59:44;7.82;;;4.70;;
72856;SDS011;62742;52.136;4.500;2023-09-07T11:02:11;7.78;;;4.45;;
72856;SDS011;62742;52.136;4.500;2023-09-07T11:04:38;8.30;;;4.78;;
72856;SDS011;62742;52.136;4.500;2023-09-07T11:07:04;6.97;;;4.05;;
72856;SDS011;62742;52.136;4.500;2023-09-07T11:09:31;10.98;;;5.10;;
72856;SDS011;62742;52.136;4.500;2023-09-07T11:12:04;8.27;;;4.60;;
72856;SDS011;62742;52.136;4.500;2023-09-07T11:14:31;9.30;;;4.10;;
72856;SDS011;62742;52.136;4.500;2023-09-07T11:16:58;6.82;;;4.18;;
72856;SDS011;62742;52.136;4.500;2023-09-07T11:19:24;8.25;;;4.22;;
72856;SDS011;62742;52.136;4.500;2023-09-07T11:21:53;7.95;;;3.58;;
72856;SDS011;62742;52.136;4.500;2023-09-07T11:24:20;7.82;;;3.90;;
72856;SDS011;62742;52.136;4.500;2023-09-07T11:26:47;6.57;;;3.55;;
72856;SDS011;62742;52.136;4.500;2023-09-07T11:29:16;8.07;;;3.60;;
72856;SDS011;62742;52.136;4.500;2023-09-07T11:31:47;8.57;;;4.13;;
72856;SDS011;62742;52.136;4.500;2023-09-07T11:34:15;7.55;;;3.38;;
72856;SDS011;62742;52.136;4.500;2023-09-07T11:36:42;9.07;;;3.95;;
72856;SDS011;62742;52.136;4.500;2023-09-07T11:39:10;5.97;;;3.30;;
72856;SDS011;62742;52.136;4.500;2023-09-07T11:41:40;7.38;;;3.70;;
72856;SDS011;62742;52.136;4.500;2023-09-07T11:44:08;6.15;;;3.67;;
72856;SDS011;62742;52.136;4.500;2023-09-07T11:46:35;6.00;;;3.55;;
72856;SDS011;62742;52.136;4.500;2023-09-07T11:49:03;6.90;;;3.42;;
72856;SDS011;62742;52.136;4.500;2023-09-07T11:51:30;7.40;;;3.67;;
72856;SDS011;62742;52.136;4.500;2023-09-07T11:53:58;10.18;;;3.70;;
72856;SDS011;62742;52.136;4.500;2023-09-07T11:56:25;6.80;;;3.40;;
72856;SDS011;62742;52.136;4.500;2023-09-07T11:58:52;15.73;;;4.28;;
72856;SDS011;62742;52.136;4.500;2023-09-07T12:01:19;7.50;;;3.40;;
72856;SDS011;62742;52.136;4.500;2023-09-07T12:03:46;9.60;;;3.67;;
72856;SDS011;62742;52.136;4.500;2023-09-07T12:06:13;6.60;;;3.30;;
72856;SDS011;62742;52.136;4.500;2023-09-07T12:08:41;7.32;;;3.50;;
72856;SDS011;62742;52.136;4.500;2023-09-07T12:11:27;5.85;;;3.20;;
72856;SDS011;62742;52.136;4.500;2023-09-07T12:13:56;9.68;;;3.50;;
72856;SDS011;62742;52.136;4.500;2023-09-07T12:16:26;7.55;;;3.63;;
72856;SDS011;62742;52.136;4.500;2023-09-07T12:18:54;6.72;;;3.40;;
72856;SDS011;62742;52.136;4.500;2023-09-07T12:21:21;5.80;;;3.45;;
72856;SDS011;62742;52.136;4.500;2023-09-07T12:23:47;7.20;;;3.65;;
72856;SDS011;62742;52.136;4.500;2023-09-07T12:26:14;8.07;;;3.50;;
72856;SDS011;62742;52.136;4.500;2023-09-07T12:28:40;8.05;;;3.40;;
72856;SDS011;62742;52.136;4.500;2023-09-07T12:31:07;7.97;;;3.10;;
72856;SDS011;62742;52.136;4.500;2023-09-07T12:33:34;7.50;;;3.70;;
72856;SDS011;62742;52.136;4.500;2023-09-07T12:36:01;5.97;;;3.60;;
72856;SDS011;62742;52.136;4.500;2023-09-07T12:38:27;7.43;;;3.83;;
72856;SDS011;62742;52.136;4.500;2023-09-07T12:40:55;6.80;;;3.78;;
72856;SDS011;62742;52.136;4.500;2023-09-07T12:43:21;7.50;;;3.40;;
72856;SDS011;62742;52.136;4.500;2023-09-07T12:45:50;8.18;;;3.40;;
72856;SDS011;62742;52.136;4.500;2023-09-07T12:48:17;7.63;;;3.38;;
72856;SDS011;62742;52.136;4.500;2023-09-07T12:50:43;7.38;;;3.78;;
72856;SDS011;62742;52.136;4.500;2023-09-07T12:53:10;7.38;;;3.35;;
72856;SDS011;62742;52.136;4.500;2023-09-07T12:55:36;5.75;;;3.47;;
72856;SDS011;62742;52.136;4.500;2023-09-07T12:58:03;8.43;;;3.45;;
72856;SDS011;62742;52.136;4.500;2023-09-07T13:00:29;6.40;;;3.55;;
72856;SDS011;62742;52.136;4.500;2023-09-07T13:02:56;6.00;;;3.50;;
72856;SDS011;62742;52.136;4.500;2023-09-07T13:05:23;5.72;;;3.38;;
72856;SDS011;62742;52.136;4.500;2023-09-07T13:07:49;7.07;;;3.25;;
72856;SDS011;62742;52.136;4.500;2023-09-07T13:10:17;7.47;;;3.40;;
72856;SDS011;62742;52.136;4.500;2023-09-07T13:12:45;7.05;;;3.33;;
72856;SDS011;62742;52.136;4.500;2023-09-07T13:15:12;7.90;;;3.50;;
72856;SDS011;62742;52.136;4.500;2023-09-07T13:17:38;7.10;;;3.70;;
72856;SDS011;62742;52.136;4.500;2023-09-07T13:20:05;5.35;;;3.15;;
72856;SDS011;62742;52.136;4.500;2023-09-07T13:22:33;6.88;;;3.65;;
72856;SDS011;62742;52.136;4.500;2023-09-07T13:24:59;6.93;;;3.47;;
72856;SDS011;62742;52.136;4.500;2023-09-07T13:27:27;6.50;;;3.25;;
72856;SDS011;62742;52.136;4.500;2023-09-07T13:29:53;11.25;;;3.55;;
72856;SDS011;62742;52.136;4.500;2023-09-07T13:32:20;8.20;;;3.47;;
72856;SDS011;62742;52.136;4.500;2023-09-07T13:34:46;9.95;;;3.53;;
72856;SDS011;62742;52.136;4.500;2023-09-07T13:37:13;8.63;;;3.67;;
72856;SDS011;62742;52.136;4.500;2023-09-07T13:39:39;8.02;;;3.38;;
72856;SDS011;62742;52.136;4.500;2023-09-07T13:42:06;6.90;;;3.25;;
72856;SDS011;62742;52.136;4.500;2023-09-07T13:44:32;7.60;;;3.90;;
72856;SDS011;62742;52.136;4.500;2023-09-07T13:46:59;9.50;;;3.78;;
72856;SDS011;62742;52.136;4.500;2023-09-07T13:49:26;8.93;;;4.00;;
72856;SDS011;62742;52.136;4.500;2023-09-07T13:51:53;7.00;;;3.20;;
72856;SDS011;62742;52.136;4.500;2023-09-07T13:54:19;8.07;;;3.22;;
72856;SDS011;62742;52.136;4.500;2023-09-07T13:56:45;9.70;;;3.95;;
72856;SDS011;62742;52.136;4.500;2023-09-07T13:59:12;5.72;;;3.60;;
72856;SDS011;62742;52.136;4.500;2023-09-07T14:01:39;6.10;;;3.53;;
72856;SDS011;62742;52.136;4.500;2023-09-07T14:04:06;8.63;;;3.70;;
72856;SDS011;62742;52.136;4.500;2023-09-07T14:06:32;7.57;;;3.70;;
72856;SDS011;62742;52.136;4.500;2023-09-07T14:08:59;6.80;;;3.78;;
72856;SDS011;62742;52.136;4.500;2023-09-07T14:11:25;7.43;;;3.78;;
72856;SDS011;62742;52.136;4.500;2023-09-07T14:13:52;7.45;;;3.60;;
72856;SDS011;62742;52.136;4.500;2023-09-07T14:16:19;8.23;;;3.33;;
72856;SDS011;62742;52.136;4.500;2023-09-07T14:18:47;10.15;;;3.90;;
72856;SDS011;62742;52.136;4.500;2023-09-07T14:21:16;6.78;;;3.20;;
72856;SDS011;62742;52.136;4.500;2023-09-07T14:23:44;9.38;;;4.25;;
72856;SDS011;62742;52.136;4.500;2023-09-07T14:26:11;8.25;;;3.92;;
72856;SDS011;62742;52.136;4.500;2023-09-07T14:28:38;6.35;;;3.47;;
72856;SDS011;62742;52.136;4.500;2023-09-07T14:31:05;6.15;;;3.67;;
72856;SDS011;62742;52.136;4.500;2023-09-07T14:33:33;7.70;;;4.10;;